sensor_id;sensor_type;location;lat;lon;timestamp;pressure;altitude;pressure_sealevel;temperature;humidity
20119;BME280;10220;42.716;23.306;2023-05-24T00:36:48;95030.06;;;16.86;100.00
20119;BME280;10220;42.716;23.306;2023-05-24T00:39:16;95042.50;;;15.54;100.00
20119;BME280;10220;42.716;23.306;2023-05-24T00:54:02;95044.03;;;15.83;100.00
20119;BME280;10220;42.716;23.306;2023-05-24T00:56:50;95045.28;;;15.64;100.00
20119;BME280;10220;42.716;23.306;2023-05-24T01:17:02;95012.59;;;14.90;100.00
20119;BME280;10220;42.716;23.306;2023-05-24T01:28:21;95054.81;;;16.24;100.00
20119;BME280;10220;42.716;23.306;2023-05-24T01:31:09;95052.94;;;16.20;100.00
20119;BME280;10220;42.716;23.306;2023-05-24T01:33:55;95069.97;;;16.39;100.00
20119;BME280;10220;42.716;23.306;2023-05-24T01:36:26;95064.03;;;16.43;100.00
20119;BME280;10220;42.716;23.306;2023-05-24T01:39:06;95072.78;;;16.70;100.00
20119;BME280;10220;42.716;23.306;2023-05-24T02:15:16;95063.00;;;15.62;100.00
20119;BME280;10220;42.716;23.306;2023-05-24T02:17:50;95048.38;;;15.61;100.00
20119;BME280;10220;42.716;23.306;2023-05-24T02:23:33;95016.31;;;15.82;100.00
20119;BME280;10220;42.716;23.306;2023-05-24T02:29:58;95027.63;;;14.71;100.00
20119;BME280;10220;42.716;23.306;2023-05-24T02:35:56;95059.78;;;13.51;100.00
20119;BME280;10220;42.716;23.306;2023-05-24T02:38:21;95001.09;;;12.56;100.00
20119;BME280;10220;42.716;23.306;2023-05-24T02:40:50;95040.38;;;12.48;100.00
20119;BME280;10220;42.716;23.306;2023-05-24T02:43:16;95015.47;;;13.69;100.00
20119;BME280;10220;42.716;23.306;2023-05-24T02:45:41;95031.84;;;14.72;100.00
20119;BME280;10220;42.716;23.306;2023-05-24T02:48:09;95029.72;;;14.97;100.00
20119;BME280;10220;42.716;23.306;2023-05-24T02:50:42;95023.47;;;15.42;100.00
20119;BME280;10220;42.716;23.306;2023-05-24T02:53:19;95033.59;;;15.23;100.00
20119;BME280;10220;42.716;23.306;2023-05-24T02:59:23;95036.88;;;13.94;100.00
20119;BME280;10220;42.716;23.306;2023-05-24T03:05:39;95037.69;;;14.40;100.00
20119;BME280;10220;42.716;23.306;2023-05-24T03:22:52;95043.91;;;14.05;100.00
20119;BME280;10220;42.716;23.306;2023-05-24T03:36:04;95068.00;;;15.80;100.00
20119;BME280;10220;42.716;23.306;2023-05-24T03:39:19;95034.63;;;14.82;100.00
20119;BME280;10220;42.716;23.306;2023-05-24T04:01:05;95057.38;;;15.37;100.00
20119;BME280;10220;42.716;23.306;2023-05-24T04:03:52;95057.16;;;15.00;100.00
20119;BME280;10220;42.716;23.306;2023-05-24T04:09:43;95086.97;;;15.04;100.00
20119;BME280;10220;42.716;23.306;2023-05-24T04:12:08;95061.28;;;14.84;100.00
20119;BME280;10220;42.716;23.306;2023-05-24T04:14:35;95061.09;;;15.02;100.00
20119;BME280;10220;42.716;23.306;2023-05-24T04:17:01;95077.72;;;15.13;100.00
20119;BME280;10220;42.716;23.306;2023-05-24T04:19:28;95101.38;;;15.45;100.00
20119;BME280;10220;42.716;23.306;2023-05-24T04:21:54;95069.78;;;15.47;100.00
20119;BME280;10220;42.716;23.306;2023-05-24T04:24:22;95089.22;;;14.38;100.00
20119;BME280;10220;42.716;23.306;2023-05-24T04:26:47;95069.22;;;15.17;100.00
20119;BME280;10220;42.716;23.306;2023-05-24T04:29:15;95084.16;;;15.61;100.00
20119;BME280;10220;42.716;23.306;2023-05-24T04:31:42;95087.06;;;15.48;100.00
20119;BME280;10220;42.716;23.306;2023-05-24T04:34:09;95094.22;;;15.02;100.00
20119;BME280;10220;42.716;23.306;2023-05-24T04:36:37;95079.38;;;14.40;100.00
20119;BME280;10220;42.716;23.306;2023-05-24T04:39:06;95097.84;;;14.27;100.00
20119;BME280;10220;42.716;23.306;2023-05-24T04:41:34;95100.91;;;14.13;100.00
20119;BME280;10220;42.716;23.306;2023-05-24T04:44:00;95105.16;;;14.76;100.00
20119;BME280;10220;42.716;23.306;2023-05-24T04:46:26;95099.34;;;14.85;100.00
20119;BME280;10220;42.716;23.306;2023-05-24T04:48:55;95090.56;;;15.14;100.00
20119;BME280;10220;42.716;23.306;2023-05-24T04:51:21;95112.31;;;15.20;100.00
20119;BME280;10220;42.716;23.306;2023-05-24T04:53:53;95101.13;;;16.40;100.00
20119;BME280;10220;42.716;23.306;2023-05-24T04:56:50;95095.72;;;17.74;100.00
20119;BME280;10220;42.716;23.306;2023-05-24T04:59:26;95110.50;;;18.48;100.00
20119;BME280;10220;42.716;23.306;2023-05-24T05:02:12;95133.41;;;17.68;100.00
20119;BME280;10220;42.716;23.306;2023-05-24T05:04:43;95082.53;;;17.96;100.00
20119;BME280;10220;42.716;23.306;2023-05-24T05:10:46;95124.66;;;18.16;100.00
20119;BME280;10220;42.716;23.306;2023-05-24T05:40:59;95141.91;;;19.91;94.78
20119;BME280;10220;42.716;23.306;2023-05-24T05:43:31;95115.31;;;19.78;93.65
20119;BME280;10220;42.716;23.306;2023-05-24T05:46:44;95096.38;;;20.65;85.67
20119;BME280;10220;42.716;23.306;2023-05-24T06:12:48;95121.69;;;18.33;100.00
20119;BME280;10220;42.716;23.306;2023-05-24T06:36:10;95116.78;;;18.47;100.00
20119;BME280;10220;42.716;23.306;2023-05-24T06:42:29;95139.75;;;18.66;100.00
20119;BME280;10220;42.716;23.306;2023-05-24T06:59:14;95134.59;;;19.27;100.00
20119;BME280;10220;42.716;23.306;2023-05-24T07:02:16;95141.47;;;19.38;100.00
20119;BME280;10220;42.716;23.306;2023-05-24T07:08:59;95133.47;;;19.84;100.00
20119;BME280;10220;42.716;23.306;2023-05-24T07:11:34;95087.25;;;19.17;100.00
20119;BME280;10220;42.716;23.306;2023-05-24T07:14:03;95086.81;;;18.79;100.00
20119;BME280;10220;42.716;23.306;2023-05-24T07:17:22;95108.34;;;19.32;100.00
20119;BME280;10220;42.716;23.306;2023-05-24T07:20:10;95113.00;;;20.01;100.00
20119;BME280;10220;42.716;23.306;2023-05-24T07:25:34;95125.25;;;21.15;91.26
20119;BME280;10220;42.716;23.306;2023-05-24T07:28:23;95129.56;;;20.86;94.33
20119;BME280;10220;42.716;23.306;2023-05-24T07:30:49;95141.81;;;21.35;82.75
20119;BME280;10220;42.716;23.306;2023-05-24T07:33:17;95141.16;;;20.65;90.29
20119;BME280;10220;42.716;23.306;2023-05-24T07:35:48;95125.75;;;21.26;85.67
20119;BME280;10220;42.716;23.306;2023-05-24T07:38:23;95138.38;;;21.92;80.54
20119;BME280;10220;42.716;23.306;2023-05-24T07:40:48;95128.91;;;21.86;82.69
20119;BME280;10220;42.716;23.306;2023-05-24T07:43:14;95138.63;;;21.43;82.57
20119;BME280;10220;42.716;23.306;2023-05-24T07:45:40;95133.44;;;21.13;83.98
20119;BME280;10220;42.716;23.306;2023-05-24T07:48:05;95141.41;;;20.49;89.28
20119;BME280;10220;42.716;23.306;2023-05-24T07:50:31;95121.88;;;20.94;85.41
20119;BME280;10220;42.716;23.306;2023-05-24T07:52:57;95134.03;;;20.70;86.88
20119;BME280;10220;42.716;23.306;2023-05-24T07:55:23;95132.19;;;20.96;87.85
20119;BME280;10220;42.716;23.306;2023-05-24T07:57:48;95103.38;;;21.19;88.76
20119;BME280;10220;42.716;23.306;2023-05-24T08:00:14;95127.22;;;21.62;88.14
20119;BME280;10220;42.716;23.306;2023-05-24T08:02:41;95118.34;;;21.86;83.83
20119;BME280;10220;42.716;23.306;2023-05-24T08:05:07;95122.72;;;22.06;83.53
20119;BME280;10220;42.716;23.306;2023-05-24T08:07:34;95124.41;;;21.92;84.68
20119;BME280;10220;42.716;23.306;2023-05-24T08:09:59;95125.72;;;21.94;80.54
20119;BME280;10220;42.716;23.306;2023-05-24T08:12:25;95110.78;;;22.13;69.79
20119;BME280;10220;42.716;23.306;2023-05-24T08:14:54;95131.81;;;22.61;72.06
20119;BME280;10220;42.716;23.306;2023-05-24T08:17:20;95111.28;;;22.82;71.42
20119;BME280;10220;42.716;23.306;2023-05-24T08:19:45;95104.22;;;22.72;73.93
20119;BME280;10220;42.716;23.306;2023-05-24T08:22:11;95099.34;;;23.12;68.01
20119;BME280;10220;42.716;23.306;2023-05-24T08:24:36;95112.91;;;23.71;62.93
20119;BME280;10220;42.716;23.306;2023-05-24T08:27:04;95108.72;;;23.47;67.48
20119;BME280;10220;42.716;23.306;2023-05-24T08:29:29;95097.91;;;23.43;60.25
20119;BME280;10220;42.716;23.306;2023-05-24T08:31:55;95112.50;;;22.89;60.54
20119;BME280;10220;42.716;23.306;2023-05-24T08:34:20;95104.38;;;23.14;64.32
20119;BME280;10220;42.716;23.306;2023-05-24T08:36:45;95116.69;;;23.23;61.70
20119;BME280;10220;42.716;23.306;2023-05-24T08:39:11;95122.25;;;22.99;59.75
20119;BME280;10220;42.716;23.306;2023-05-24T08:41:37;95103.63;;;23.50;57.62
20119;BME280;10220;42.716;23.306;2023-05-24T08:44:06;95109.44;;;23.75;57.70
20119;BME280;10220;42.716;23.306;2023-05-24T08:46:35;95112.31;;;23.97;53.45
20119;BME280;10220;42.716;23.306;2023-05-24T08:49:02;95094.72;;;23.64;53.18
20119;BME280;10220;42.716;23.306;2023-05-24T08:51:29;95077.56;;;23.62;50.11
20119;BME280;10220;42.716;23.306;2023-05-24T08:53:57;95107.50;;;23.81;49.75
20119;BME280;10220;42.716;23.306;2023-05-24T08:56:24;95089.44;;;24.38;49.89
20119;BME280;10220;42.716;23.306;2023-05-24T08:58:50;95090.75;;;24.22;48.02
20119;BME280;10220;42.716;23.306;2023-05-24T09:01:16;95094.88;;;24.28;49.83
20119;BME280;10220;42.716;23.306;2023-05-24T09:03:42;95095.78;;;24.37;50.42
20119;BME280;10220;42.716;23.306;2023-05-24T09:06:12;95099.59;;;24.49;49.32
20119;BME280;10220;42.716;23.306;2023-05-24T09:08:38;95086.66;;;24.61;48.69
20119;BME280;10220;42.716;23.306;2023-05-24T09:11:06;95107.94;;;25.01;47.85
20119;BME280;10220;42.716;23.306;2023-05-24T09:13:32;95106.19;;;24.52;49.37
20119;BME280;10220;42.716;23.306;2023-05-24T09:15:59;95096.06;;;24.04;52.02
20119;BME280;10220;42.716;23.306;2023-05-24T09:18:24;95095.38;;;24.48;49.71
20119;BME280;10220;42.716;23.306;2023-05-24T09:20:50;95103.31;;;24.93;47.17
20119;BME280;10220;42.716;23.306;2023-05-24T09:23:16;95091.69;;;24.13;47.84
20119;BME280;10220;42.716;23.306;2023-05-24T09:25:43;95101.44;;;24.30;49.20
20119;BME280;10220;42.716;23.306;2023-05-24T09:28:12;95101.59;;;24.71;48.77
20119;BME280;10220;42.716;23.306;2023-05-24T09:30:41;95079.59;;;25.29;49.18
20119;BME280;10220;42.716;23.306;2023-05-24T09:33:06;95083.81;;;25.16;49.19
20119;BME280;10220;42.716;23.306;2023-05-24T09:35:32;95092.44;;;25.48;46.88
20119;BME280;10220;42.716;23.306;2023-05-24T09:37:58;95082.34;;;25.24;45.76
20119;BME280;10220;42.716;23.306;2023-05-24T09:40:25;95078.66;;;25.60;46.20
20119;BME280;10220;42.716;23.306;2023-05-24T09:43:06;95084.28;;;25.72;43.78
20119;BME280;10220;42.716;23.306;2023-05-24T09:45:44;95076.38;;;25.67;46.82
20119;BME280;10220;42.716;23.306;2023-05-24T09:48:16;95070.41;;;25.75;44.67
20119;BME280;10220;42.716;23.306;2023-05-24T09:51:07;95080.03;;;26.06;42.04
20119;BME280;10220;42.716;23.306;2023-05-24T09:53:36;95078.50;;;25.70;42.59
20119;BME280;10220;42.716;23.306;2023-05-24T09:56:05;95081.09;;;25.83;42.18
20119;BME280;10220;42.716;23.306;2023-05-24T09:58:33;95060.22;;;25.28;46.28
20119;BME280;10220;42.716;23.306;2023-05-24T10:01:09;95067.16;;;26.00;45.18
20119;BME280;10220;42.716;23.306;2023-05-24T10:03:53;95077.47;;;25.79;43.12
20119;BME280;10220;42.716;23.306;2023-05-24T10:06:19;95068.97;;;26.26;43.52
20119;BME280;10220;42.716;23.306;2023-05-24T10:08:46;95072.22;;;25.88;43.94
20119;BME280;10220;42.716;23.306;2023-05-24T10:11:15;95073.25;;;25.78;41.53
20119;BME280;10220;42.716;23.306;2023-05-24T10:13:41;95066.09;;;26.01;42.58
20119;BME280;10220;42.716;23.306;2023-05-24T10:16:07;95058.94;;;26.01;40.79
20119;BME280;10220;42.716;23.306;2023-05-24T10:18:33;95067.31;;;26.16;39.95
20119;BME280;10220;42.716;23.306;2023-05-24T10:20:59;95067.06;;;26.26;39.85
20119;BME280;10220;42.716;23.306;2023-05-24T10:23:28;95070.69;;;26.30;39.10
20119;BME280;10220;42.716;23.306;2023-05-24T10:26:09;95063.44;;;26.01;40.83
20119;BME280;10220;42.716;23.306;2023-05-24T10:28:43;95058.13;;;26.01;40.59
20119;BME280;10220;42.716;23.306;2023-05-24T10:31:11;95058.31;;;26.04;40.50
20119;BME280;10220;42.716;23.306;2023-05-24T10:33:41;95050.00;;;26.41;38.89
20119;BME280;10220;42.716;23.306;2023-05-24T10:36:09;95048.63;;;26.73;39.26
20119;BME280;10220;42.716;23.306;2023-05-24T10:38:37;95059.75;;;26.75;39.53
20119;BME280;10220;42.716;23.306;2023-05-24T10:41:04;95044.16;;;27.21;37.96
20119;BME280;10220;42.716;23.306;2023-05-24T10:43:30;95032.69;;;27.12;38.81
20119;BME280;10220;42.716;23.306;2023-05-24T10:45:55;95049.09;;;26.97;38.68
20119;BME280;10220;42.716;23.306;2023-05-24T10:50:52;95031.03;;;27.33;38.93
20119;BME280;10220;42.716;23.306;2023-05-24T10:53:21;95026.09;;;27.01;39.29
20119;BME280;10220;42.716;23.306;2023-05-24T10:55:51;95028.81;;;27.26;39.25
20119;BME280;10220;42.716;23.306;2023-05-24T10:58:17;95028.75;;;27.10;38.48
20119;BME280;10220;42.716;23.306;2023-05-24T11:00:43;95027.59;;;27.32;39.42
20119;BME280;10220;42.716;23.306;2023-05-24T11:03:10;95019.84;;;27.95;38.85
20119;BME280;10220;42.716;23.306;2023-05-24T11:08:12;95022.25;;;28.84;37.70
20119;BME280;10220;42.716;23.306;2023-05-24T11:10:37;95024.97;;;29.05;37.09
20119;BME280;10220;42.716;23.306;2023-05-24T11:13:06;95013.31;;;28.80;37.94
20119;BME280;10220;42.716;23.306;2023-05-24T11:15:32;95019.06;;;28.20;36.60
20119;BME280;10220;42.716;23.306;2023-05-24T11:20:40;95027.69;;;28.34;37.37
20119;BME280;10220;42.716;23.306;2023-05-24T11:23:07;95021.34;;;28.55;37.33
20119;BME280;10220;42.716;23.306;2023-05-24T11:25:36;95008.97;;;27.32;37.61
20119;BME280;10220;42.716;23.306;2023-05-24T11:28:05;95003.56;;;27.07;38.63
20119;BME280;10220;42.716;23.306;2023-05-24T11:30:31;95010.94;;;27.19;40.10
20119;BME280;10220;42.716;23.306;2023-05-24T11:32:59;95015.34;;;26.84;39.65
20119;BME280;10220;42.716;23.306;2023-05-24T11:35:27;95005.78;;;26.83;41.18
20119;BME280;10220;42.716;23.306;2023-05-24T11:37:54;94992.28;;;27.02;40.48
20119;BME280;10220;42.716;23.306;2023-05-24T11:40:21;95010.81;;;26.85;39.44
20119;BME280;10220;42.716;23.306;2023-05-24T11:42:48;95006.28;;;26.55;39.82
20119;BME280;10220;42.716;23.306;2023-05-24T11:45:16;95008.91;;;26.77;41.15
20119;BME280;10220;42.716;23.306;2023-05-24T11:47:42;94990.09;;;27.12;40.58
20119;BME280;10220;42.716;23.306;2023-05-24T11:50:08;94989.97;;;26.78;39.36
20119;BME280;10220;42.716;23.306;2023-05-24T11:52:38;95004.75;;;26.32;39.83
20119;BME280;10220;42.716;23.306;2023-05-24T11:55:05;94992.44;;;26.14;39.29
20119;BME280;10220;42.716;23.306;2023-05-24T11:57:36;94999.63;;;26.36;40.36
20119;BME280;10220;42.716;23.306;2023-05-24T12:00:05;94968.97;;;26.16;39.77
20119;BME280;10220;42.716;23.306;2023-05-24T12:02:35;94977.16;;;26.20;42.06
20119;BME280;10220;42.716;23.306;2023-05-24T12:05:07;94981.09;;;26.53;42.18
20119;BME280;10220;42.716;23.306;2023-05-24T12:07:34;94989.81;;;26.45;40.33
20119;BME280;10220;42.716;23.306;2023-05-24T12:10:04;94974.25;;;26.60;39.16
20119;BME280;10220;42.716;23.306;2023-05-24T12:12:32;94975.75;;;26.22;39.92
20119;BME280;10220;42.716;23.306;2023-05-24T12:14:58;94977.34;;;26.02;40.66
20119;BME280;10220;42.716;23.306;2023-05-24T12:17:23;94984.69;;;26.26;40.35
20119;BME280;10220;42.716;23.306;2023-05-24T12:19:49;94980.75;;;26.24;41.36
20119;BME280;10220;42.716;23.306;2023-05-24T12:22:15;94982.69;;;25.66;40.14
20119;BME280;10220;42.716;23.306;2023-05-24T12:24:41;94970.34;;;25.48;41.09
20119;BME280;10220;42.716;23.306;2023-05-24T12:27:07;94963.31;;;25.66;40.35
20119;BME280;10220;42.716;23.306;2023-05-24T12:29:34;94971.91;;;25.85;41.18
20119;BME280;10220;42.716;23.306;2023-05-24T12:32:01;94949.31;;;25.96;41.64
20119;BME280;10220;42.716;23.306;2023-05-24T12:34:26;94952.78;;;25.74;40.24
20119;BME280;10220;42.716;23.306;2023-05-24T12:36:54;94927.81;;;25.75;41.78
20119;BME280;10220;42.716;23.306;2023-05-24T12:39:26;94932.06;;;26.06;41.82
20119;BME280;10220;42.716;23.306;2023-05-24T12:41:56;94958.06;;;26.18;40.07
20119;BME280;10220;42.716;23.306;2023-05-24T12:44:32;94953.13;;;26.03;38.66
20119;BME280;10220;42.716;23.306;2023-05-24T12:46:58;94932.47;;;25.70;40.81
20119;BME280;10220;42.716;23.306;2023-05-24T12:49:24;94934.19;;;25.74;40.93
20119;BME280;10220;42.716;23.306;2023-05-24T12:51:52;94944.94;;;25.91;40.53
20119;BME280;10220;42.716;23.306;2023-05-24T12:54:20;94945.91;;;25.73;40.70
20119;BME280;10220;42.716;23.306;2023-05-24T12:56:46;94952.47;;;25.76;40.57
20119;BME280;10220;42.716;23.306;2023-05-24T12:59:12;94943.59;;;25.58;41.18
20119;BME280;10220;42.716;23.306;2023-05-24T13:01:38;94937.19;;;25.81;41.00
20119;BME280;10220;42.716;23.306;2023-05-24T13:04:03;94934.94;;;25.88;41.67
20119;BME280;10220;42.716;23.306;2023-05-24T13:06:29;94936.97;;;25.91;40.00
20119;BME280;10220;42.716;23.306;2023-05-24T13:08:54;94949.94;;;25.71;41.21
20119;BME280;10220;42.716;23.306;2023-05-24T13:11:20;94932.81;;;25.77;42.27
20119;BME280;10220;42.716;23.306;2023-05-24T13:13:47;94941.09;;;25.75;42.11
20119;BME280;10220;42.716;23.306;2023-05-24T13:16:12;94929.13;;;25.86;42.89
20119;BME280;10220;42.716;23.306;2023-05-24T13:18:38;94930.03;;;25.82;42.05
20119;BME280;10220;42.716;23.306;2023-05-24T13:21:04;94934.59;;;25.68;43.17
20119;BME280;10220;42.716;23.306;2023-05-24T13:23:31;94928.81;;;25.88;42.07
20119;BME280;10220;42.716;23.306;2023-05-24T13:25:57;94918.59;;;25.81;42.54
20119;BME280;10220;42.716;23.306;2023-05-24T13:28:22;94922.81;;;25.60;42.95
20119;BME280;10220;42.716;23.306;2023-05-24T13:30:48;94913.88;;;25.70;43.72
20119;BME280;10220;42.716;23.306;2023-05-24T13:33:13;94923.19;;;25.89;43.63
20119;BME280;10220;42.716;23.306;2023-05-24T13:35:40;94929.41;;;25.85;43.07
20119;BME280;10220;42.716;23.306;2023-05-24T13:38:06;94935.91;;;25.57;44.18
20119;BME280;10220;42.716;23.306;2023-05-24T13:40:33;94915.81;;;25.43;44.51
20119;BME280;10220;42.716;23.306;2023-05-24T13:42:58;94924.66;;;25.38;45.59
20119;BME280;10220;42.716;23.306;2023-05-24T13:45:24;94938.09;;;25.20;49.47
20119;BME280;10220;42.716;23.306;2023-05-24T13:47:50;94924.25;;;25.09;53.00
20119;BME280;10220;42.716;23.306;2023-05-24T13:50:16;94924.59;;;24.68;58.40
20119;BME280;10220;42.716;23.306;2023-05-24T13:52:42;94945.44;;;24.29;63.10
20119;BME280;10220;42.716;23.306;2023-05-24T13:55:08;94943.78;;;24.20;64.41
20119;BME280;10220;42.716;23.306;2023-05-24T13:57:35;94950.66;;;24.21;67.92
20119;BME280;10220;42.716;23.306;2023-05-24T14:00:00;94966.88;;;23.69;79.48
20119;BME280;10220;42.716;23.306;2023-05-24T14:02:27;94948.72;;;23.07;83.10
20119;BME280;10220;42.716;23.306;2023-05-24T14:04:53;94964.16;;;22.96;82.01
20119;BME280;10220;42.716;23.306;2023-05-24T14:07:19;94949.63;;;22.75;82.19
20119;BME280;10220;42.716;23.306;2023-05-24T14:09:44;94962.38;;;22.91;73.75
20119;BME280;10220;42.716;23.306;2023-05-24T14:12:10;94957.19;;;22.81;68.05
20119;BME280;10220;42.716;23.306;2023-05-24T14:14:38;94929.13;;;22.85;68.72
20119;BME280;10220;42.716;23.306;2023-05-24T14:17:03;94938.50;;;23.01;67.25
20119;BME280;10220;42.716;23.306;2023-05-24T14:19:29;94954.50;;;23.28;63.08
20119;BME280;10220;42.716;23.306;2023-05-24T14:21:55;94940.13;;;23.52;60.02
20119;BME280;10220;42.716;23.306;2023-05-24T14:24:20;94938.97;;;23.76;55.39
20119;BME280;10220;42.716;23.306;2023-05-24T14:26:45;94951.78;;;23.69;55.34
20119;BME280;10220;42.716;23.306;2023-05-24T14:29:11;94959.94;;;23.55;56.29
20119;BME280;10220;42.716;23.306;2023-05-24T14:31:37;94963.66;;;23.72;60.33
20119;BME280;10220;42.716;23.306;2023-05-24T14:34:07;94943.09;;;23.82;60.92
20119;BME280;10220;42.716;23.306;2023-05-24T14:36:33;94959.47;;;23.84;59.01
20119;BME280;10220;42.716;23.306;2023-05-24T14:38:59;94961.75;;;23.91;62.76
20119;BME280;10220;42.716;23.306;2023-05-24T14:41:25;94947.53;;;23.50;62.24
20119;BME280;10220;42.716;23.306;2023-05-24T14:43:50;94967.53;;;23.43;60.90
20119;BME280;10220;42.716;23.306;2023-05-24T14:46:16;94968.78;;;23.63;60.24
20119;BME280;10220;42.716;23.306;2023-05-24T14:48:41;94980.16;;;23.82;62.35
20119;BME280;10220;42.716;23.306;2023-05-24T14:51:07;94971.28;;;23.55;67.30
20119;BME280;10220;42.716;23.306;2023-05-24T14:53:32;94979.00;;;23.33;72.77
20119;BME280;10220;42.716;23.306;2023-05-24T14:55:57;94973.13;;;23.00;83.34
20119;BME280;10220;42.716;23.306;2023-05-24T14:58:23;94989.72;;;22.82;88.22
20119;BME280;10220;42.716;23.306;2023-05-24T15:00:48;94995.91;;;22.21;92.48
20119;BME280;10220;42.716;23.306;2023-05-24T15:03:14;94993.16;;;22.02;96.74
20119;BME280;10220;42.716;23.306;2023-05-24T15:05:39;94999.47;;;21.73;100.00
20119;BME280;10220;42.716;23.306;2023-05-24T15:08:07;95012.03;;;21.48;100.00
20119;BME280;10220;42.716;23.306;2023-05-24T15:10:32;95001.97;;;21.07;100.00
20119;BME280;10220;42.716;23.306;2023-05-24T15:12:57;94970.91;;;19.76;100.00
20119;BME280;10220;42.716;23.306;2023-05-24T15:15:23;94978.00;;;19.21;100.00
20119;BME280;10220;42.716;23.306;2023-05-24T15:17:49;94959.84;;;19.10;100.00
20119;BME280;10220;42.716;23.306;2023-05-24T15:20:14;94969.88;;;19.52;100.00
20119;BME280;10220;42.716;23.306;2023-05-24T15:22:40;94932.81;;;19.54;100.00
20119;BME280;10220;42.716;23.306;2023-05-24T15:25:06;94957.50;;;19.88;100.00
20119;BME280;10220;42.716;23.306;2023-05-24T15:27:31;94948.50;;;20.33;100.00
20119;BME280;10220;42.716;23.306;2023-05-24T15:29:57;94932.38;;;20.50;90.78
20119;BME280;10220;42.716;23.306;2023-05-24T15:32:26;94946.53;;;20.73;96.67
20119;BME280;10220;42.716;23.306;2023-05-24T15:34:51;94942.50;;;20.96;86.02
20119;BME280;10220;42.716;23.306;2023-05-24T15:37:17;94939.19;;;21.14;83.46
20119;BME280;10220;42.716;23.306;2023-05-24T15:39:44;94942.56;;;21.24;93.90
20119;BME280;10220;42.716;23.306;2023-05-24T15:42:09;94946.78;;;21.25;93.37
20119;BME280;10220;42.716;23.306;2023-05-24T15:44:35;94943.88;;;21.22;99.64
20119;BME280;10220;42.716;23.306;2023-05-24T15:47:00;94946.34;;;21.51;94.47
20119;BME280;10220;42.716;23.306;2023-05-24T15:49:26;94948.38;;;21.59;85.02
20119;BME280;10220;42.716;23.306;2023-05-24T15:51:52;94942.47;;;21.72;70.25
20119;BME280;10220;42.716;23.306;2023-05-24T15:54:18;94948.91;;;21.94;97.81
20119;BME280;10220;42.716;23.306;2023-05-24T15:56:43;94956.34;;;21.87;100.00
20119;BME280;10220;42.716;23.306;2023-05-24T15:59:13;94933.16;;;21.84;100.00
20119;BME280;10220;42.716;23.306;2023-05-24T16:01:39;94961.81;;;21.96;100.00
20119;BME280;10220;42.716;23.306;2023-05-24T16:04:05;94961.00;;;21.95;100.00
20119;BME280;10220;42.716;23.306;2023-05-24T16:06:31;94974.56;;;21.84;100.00
20119;BME280;10220;42.716;23.306;2023-05-24T16:08:57;94981.03;;;22.01;100.00
20119;BME280;10220;42.716;23.306;2023-05-24T16:11:23;94989.97;;;22.05;100.00
20119;BME280;10220;42.716;23.306;2023-05-24T16:13:48;94986.72;;;21.80;100.00
20119;BME280;10220;42.716;23.306;2023-05-24T16:16:14;94992.38;;;21.69;100.00
20119;BME280;10220;42.716;23.306;2023-05-24T16:18:40;94983.59;;;21.78;100.00
20119;BME280;10220;42.716;23.306;2023-05-24T16:21:06;94995.84;;;21.97;100.00
20119;BME280;10220;42.716;23.306;2023-05-24T16:23:31;94982.25;;;21.81;100.00
20119;BME280;10220;42.716;23.306;2023-05-24T16:25:57;94990.53;;;21.69;100.00
20119;BME280;10220;42.716;23.306;2023-05-24T16:28:23;94979.72;;;21.27;100.00
20119;BME280;10220;42.716;23.306;2023-05-24T16:30:52;94981.19;;;21.00;100.00
20119;BME280;10220;42.716;23.306;2023-05-24T16:33:21;94989.34;;;20.99;100.00
20119;BME280;10220;42.716;23.306;2023-05-24T16:35:46;94996.97;;;21.05;100.00
20119;BME280;10220;42.716;23.306;2023-05-24T16:38:19;94977.22;;;21.03;100.00
20119;BME280;10220;42.716;23.306;2023-05-24T16:40:44;94985.28;;;21.21;100.00
20119;BME280;10220;42.716;23.306;2023-05-24T16:43:10;94980.75;;;21.31;100.00
20119;BME280;10220;42.716;23.306;2023-05-24T16:45:35;94984.94;;;21.37;100.00
20119;BME280;10220;42.716;23.306;2023-05-24T16:48:01;94981.16;;;21.53;100.00
20119;BME280;10220;42.716;23.306;2023-05-24T16:50:26;94985.84;;;21.61;100.00
20119;BME280;10220;42.716;23.306;2023-05-24T16:52:51;94969.59;;;21.01;100.00
20119;BME280;10220;42.716;23.306;2023-05-24T16:55:17;94972.84;;;20.83;100.00
20119;BME280;10220;42.716;23.306;2023-05-24T16:57:42;94981.47;;;20.99;100.00
20119;BME280;10220;42.716;23.306;2023-05-24T17:00:08;94987.38;;;21.19;100.00
20119;BME280;10220;42.716;23.306;2023-05-24T17:02:35;94994.50;;;21.23;100.00
20119;BME280;10220;42.716;23.306;2023-05-24T17:05:00;94989.69;;;21.35;100.00
20119;BME280;10220;42.716;23.306;2023-05-24T17:07:26;94989.69;;;21.30;100.00
20119;BME280;10220;42.716;23.306;2023-05-24T17:09:51;94980.53;;;21.23;100.00
20119;BME280;10220;42.716;23.306;2023-05-24T17:12:18;94988.34;;;21.38;100.00
20119;BME280;10220;42.716;23.306;2023-05-24T17:14:45;94994.47;;;21.28;100.00
20119;BME280;10220;42.716;23.306;2023-05-24T17:17:10;94991.38;;;21.17;100.00
20119;BME280;10220;42.716;23.306;2023-05-24T17:19:35;94985.41;;;21.44;100.00
20119;BME280;10220;42.716;23.306;2023-05-24T17:22:02;94994.91;;;21.40;100.00
20119;BME280;10220;42.716;23.306;2023-05-24T17:24:29;94996.13;;;21.63;100.00
20119;BME280;10220;42.716;23.306;2023-05-24T17:26:55;94998.25;;;21.61;100.00
20119;BME280;10220;42.716;23.306;2023-05-24T17:29:20;95005.19;;;21.80;100.00
20119;BME280;10220;42.716;23.306;2023-05-24T17:31:46;95013.03;;;21.57;100.00
20119;BME280;10220;42.716;23.306;2023-05-24T17:34:13;95012.53;;;21.45;100.00